createdAt,value
2023-05-04T00:00:51.698Z,101447.00
2023-05-04T00:03:19.532Z,101462.06
2023-05-04T00:05:47.313Z,101453.63
2023-05-04T00:08:15.093Z,101449.78
2023-05-04T00:10:42.831Z,101442.38
2023-05-04T00:13:10.663Z,101447.88
2023-05-04T00:15:39.854Z,101442.31
2023-05-04T00:18:07.935Z,101440.75
2023-05-04T00:20:35.727Z,101434.41
2023-05-04T00:23:03.436Z,101433.63
2023-05-04T00:25:31.120Z,101430.47
2023-05-04T00:27:58.776Z,101422.75
2023-05-04T00:30:26.452Z,101422.94
2023-05-04T00:32:55.608Z,101416.25
2023-05-04T00:35:23.400Z,101405.66
2023-05-04T00:37:51.089Z,101416.13
2023-05-04T00:40:18.871Z,101428.78
2023-05-04T00:42:46.670Z,101412.63
2023-05-04T00:45:15.595Z,101412.50
2023-05-04T00:47:44.192Z,101398.69
2023-05-04T00:53:00.202Z,101402.47
2023-05-04T00:55:28.043Z,101403.88
2023-05-04T00:57:56.476Z,101394.56
2023-05-04T01:00:24.379Z,101393.28
2023-05-04T01:02:54.475Z,101397.34
2023-05-04T01:05:23.805Z,101384.53
2023-05-04T01:07:58.875Z,101375.97
2023-05-04T01:10:30.106Z,101371.41
2023-05-04T01:13:01.682Z,101367.09
2023-05-04T01:15:30.383Z,101380.22
2023-05-04T01:17:58.282Z,101379.66
2023-05-04T01:20:27.569Z,101371.53
2023-05-04T01:22:57.181Z,101379.56
2023-05-04T01:25:25.536Z,101375.53
2023-05-04T01:27:57.831Z,101374.78
2023-05-04T01:30:29.294Z,101371.13
2023-05-04T01:33:19.917Z,101354.47
2023-05-04T01:35:47.784Z,101369.50
2023-05-04T01:38:16.987Z,101368.72
2023-05-04T01:40:44.717Z,101366.56
2023-05-04T01:43:12.546Z,101366.75
2023-05-04T01:45:40.332Z,101370.75
2023-05-04T01:48:08.161Z,101365.00
2023-05-04T01:50:35.938Z,101382.13
2023-05-04T01:53:03.708Z,101385.97
2023-05-04T01:55:32.897Z,101393.19
2023-05-04T01:58:00.696Z,101394.63
2023-05-04T02:00:29.118Z,101385.91
2023-05-04T02:02:57.113Z,101380.50
2023-05-04T02:05:25.018Z,101378.06
2023-05-04T02:07:52.806Z,101370.94
2023-05-04T02:10:20.597Z,101362.06
2023-05-04T02:12:49.773Z,101358.38
2023-05-04T02:15:17.631Z,101355.50
2023-05-04T02:17:45.422Z,101359.28
2023-05-04T02:22:56.167Z,101353.56
2023-05-04T02:25:24.769Z,101352.56
2023-05-04T02:27:53.910Z,101345.31
2023-05-04T02:30:21.853Z,101349.50
2023-05-04T02:33:10.423Z,101355.88
2023-05-04T02:35:38.167Z,101353.88
2023-05-04T02:38:05.957Z,101347.41
2023-05-04T02:40:33.718Z,101344.75
2023-05-04T02:43:02.839Z,101342.31
2023-05-04T02:45:30.599Z,101341.38
2023-05-04T02:47:58.457Z,101340.66
2023-05-04T02:50:26.223Z,101341.97
2023-05-04T02:52:53.993Z,101341.63
2023-05-04T02:55:22.049Z,101338.44
2023-05-04T02:57:50.035Z,101335.16
2023-05-04T03:00:19.608Z,101324.06
2023-05-04T03:02:47.408Z,101325.97
2023-05-04T03:05:15.138Z,101320.00
2023-05-04T03:07:42.870Z,101334.41
2023-05-04T03:10:11.750Z,101315.28
2023-05-04T03:12:39.909Z,101321.56
2023-05-04T03:15:09.140Z,101315.63
2023-05-04T03:17:38.381Z,101327.78
2023-05-04T03:20:08.112Z,101320.06
2023-05-04T03:22:36.047Z,101328.72
2023-05-04T03:25:03.951Z,101318.25
2023-05-04T03:27:31.693Z,101322.78
2023-05-04T03:29:59.449Z,101323.84
2023-05-04T03:32:27.729Z,101317.44
2023-05-04T03:34:56.911Z,101301.75
2023-05-04T03:37:24.989Z,101312.50
2023-05-04T03:39:52.717Z,101308.75
2023-05-04T03:42:22.971Z,101313.47
2023-05-04T03:44:50.768Z,101297.69
2023-05-04T03:47:18.519Z,101292.50
2023-05-04T03:49:46.511Z,101291.69
2023-05-04T03:52:15.609Z,101291.56
2023-05-04T03:54:43.322Z,101293.31
2023-05-04T03:57:11.208Z,101289.25
2023-05-04T03:59:38.931Z,101295.47
2023-05-04T04:02:06.777Z,101294.63
2023-05-04T04:04:34.843Z,101295.47
2023-05-04T04:07:02.677Z,101292.47
2023-05-04T04:09:31.812Z,101289.03
2023-05-04T04:11:59.835Z,101300.03
2023-05-04T04:14:27.611Z,101290.34
2023-05-04T04:16:55.377Z,101283.44
2023-05-04T04:19:23.091Z,101292.69
2023-05-04T04:21:50.991Z,101295.84
2023-05-04T04:24:19.191Z,101295.50
2023-05-04T04:26:48.296Z,101296.78
2023-05-04T04:29:15.987Z,101289.44
2023-05-04T04:31:43.737Z,101305.03
2023-05-04T04:34:11.502Z,101290.63
2023-05-04T04:36:39.504Z,101287.75
2023-05-04T04:39:07.398Z,101288.88
2023-05-04T04:41:35.117Z,101290.19
2023-05-04T04:44:05.068Z,101299.59
2023-05-04T04:46:33.695Z,101304.63
2023-05-04T04:49:01.452Z,101320.00
2023-05-04T04:51:29.445Z,101319.00
2023-05-04T04:53:57.108Z,101301.78
2023-05-04T04:56:24.806Z,101306.81
2023-05-04T04:58:52.527Z,101309.41
2023-05-04T05:01:22.004Z,101309.31
2023-05-04T05:03:50.329Z,101302.16
2023-05-04T05:06:18.030Z,101290.91
2023-05-04T05:08:45.800Z,101305.75
2023-05-04T05:11:13.559Z,101301.22
2023-05-04T05:13:41.550Z,101296.66
2023-05-04T05:16:09.408Z,101292.22
2023-05-04T05:18:38.561Z,101301.19
2023-05-04T05:21:07.491Z,101301.75
2023-05-04T05:23:35.673Z,101316.81
2023-05-04T05:26:03.670Z,101295.00
2023-05-04T05:28:31.549Z,101288.06
2023-05-04T05:30:59.342Z,101288.28
2023-05-04T05:33:27.057Z,101282.59
2023-05-04T05:35:56.351Z,101267.31
2023-05-04T05:38:24.297Z,101276.16
2023-05-04T05:40:52.297Z,101270.28
2023-05-04T05:43:23.025Z,101276.16
2023-05-04T05:45:52.808Z,101269.31
2023-05-04T05:48:21.932Z,101272.53
2023-05-04T05:50:49.958Z,101291.25
2023-05-04T05:53:19.313Z,101276.22
2023-05-04T05:55:47.708Z,101278.97
2023-05-04T05:58:17.128Z,101291.50
2023-05-04T06:00:44.997Z,101274.34
2023-05-04T06:03:13.260Z,101289.50
2023-05-04T06:05:41.860Z,101275.84
2023-05-04T06:08:09.816Z,101277.25
2023-05-04T06:10:39.889Z,101264.06
2023-05-04T06:13:07.872Z,101262.94
2023-05-04T06:15:36.730Z,101256.44
2023-05-04T06:18:05.100Z,101258.34
2023-05-04T06:20:33.348Z,101255.03
2023-05-04T06:23:01.993Z,101266.22
2023-05-04T06:25:50.215Z,101262.75
2023-05-04T06:28:19.585Z,101247.00
2023-05-04T06:30:48.496Z,101263.19
2023-05-04T06:33:16.561Z,101244.13
2023-05-04T06:35:45.695Z,101249.31
2023-05-04T06:38:14.771Z,101245.28
2023-05-04T06:40:43.216Z,101261.38
2023-05-04T06:43:12.857Z,101242.47
2023-05-04T06:45:41.381Z,101256.50
2023-05-04T06:48:09.545Z,101263.88
2023-05-04T06:50:37.525Z,101262.78
2023-05-04T06:53:08.183Z,101248.50
2023-05-04T06:55:36.222Z,101269.09
2023-05-04T06:58:04.134Z,101263.19
2023-05-04T07:00:33.616Z,101257.53
2023-05-04T07:03:01.456Z,101236.84
2023-05-04T07:05:29.640Z,101243.13
2023-05-04T07:07:58.882Z,101257.53
2023-05-04T07:10:26.882Z,101230.13
2023-05-04T07:12:55.067Z,101233.72
2023-05-04T07:15:26.630Z,101246.44
2023-05-04T07:17:55.876Z,101239.34
2023-05-04T07:20:26.071Z,101237.31
2023-05-04T07:22:57.308Z,101246.53
2023-05-04T07:25:33.933Z,101237.28
2023-05-04T07:28:04.196Z,101248.97
2023-05-04T07:30:41.398Z,101229.03
2023-05-04T07:33:11.496Z,101239.63
2023-05-04T07:38:37.509Z,101230.22
2023-05-04T07:41:05.271Z,101231.28
2023-05-04T07:43:33.373Z,101238.22
2023-05-04T07:46:01.570Z,101247.53
2023-05-04T07:48:30.691Z,101232.78
2023-05-04T07:50:58.353Z,101226.81
2023-05-04T07:53:27.072Z,101226.25
2023-05-04T07:55:57.290Z,101218.97
2023-05-04T07:58:28.556Z,101225.25
2023-05-04T08:00:56.187Z,101235.34
2023-05-04T08:03:24.033Z,101232.91
2023-05-04T08:05:53.695Z,101229.84
2023-05-04T08:08:21.924Z,101233.44
2023-05-04T08:10:49.567Z,101235.09
2023-05-04T08:13:17.266Z,101237.78
2023-05-04T08:15:44.879Z,101216.81
2023-05-04T08:18:12.555Z,101236.16
2023-05-04T08:20:40.237Z,101213.78
2023-05-04T08:23:09.309Z,101222.94
2023-05-04T08:25:37.223Z,101217.28
2023-05-04T08:28:05.102Z,101201.69
2023-05-04T08:30:32.737Z,101228.00
2023-05-04T08:33:00.469Z,101203.06
2023-05-04T08:35:28.819Z,101204.69
2023-05-04T08:37:56.757Z,101212.75
2023-05-04T08:40:25.816Z,101198.78
2023-05-04T08:42:53.725Z,101204.56
2023-05-04T08:45:21.437Z,101196.44
2023-05-04T08:47:49.408Z,101192.78
2023-05-04T08:50:17.171Z,101172.59
2023-05-04T08:52:47.483Z,101189.44
2023-05-04T08:55:16.996Z,101198.66
2023-05-04T08:57:46.285Z,101168.31
2023-05-04T09:00:16.868Z,101175.06
2023-05-04T09:02:45.642Z,101183.16
2023-05-04T09:05:13.596Z,101163.03
2023-05-04T09:07:41.237Z,101175.44
2023-05-04T09:10:10.082Z,101168.81
2023-05-04T09:12:38.807Z,101168.75
2023-05-04T09:15:17.783Z,101175.06
2023-05-04T09:20:25.741Z,101167.69
2023-05-04T09:23:04.139Z,101174.34
2023-05-04T09:25:32.203Z,101170.41
2023-05-04T09:28:00.080Z,101177.50
2023-05-04T09:30:29.233Z,101159.53
2023-05-04T09:33:00.169Z,101167.22
2023-05-04T09:35:33.192Z,101168.97
2023-05-04T09:38:02.019Z,101171.31
2023-05-04T09:40:33.780Z,101175.91
2023-05-04T09:43:01.914Z,101154.06
2023-05-04T09:45:41.776Z,101164.19
2023-05-04T09:48:20.046Z,101164.63
2023-05-04T09:50:52.696Z,101146.63
2023-05-04T09:53:23.097Z,101160.41
2023-05-04T09:55:56.897Z,101155.34
2023-05-04T09:58:40.259Z,101130.38
2023-05-04T10:01:09.462Z,101129.50
2023-05-04T10:03:38.014Z,101132.38
2023-05-04T10:06:08.890Z,101137.03
2023-05-04T10:08:37.168Z,101124.19
2023-05-04T10:11:05.245Z,101113.22
2023-05-04T10:13:32.941Z,101116.66
2023-05-04T10:16:14.184Z,101107.53
2023-05-04T10:19:08.865Z,101104.59
2023-05-04T10:21:47.339Z,101117.75
2023-05-04T10:24:26.744Z,101094.38
2023-05-04T10:27:00.999Z,101115.97
2023-05-04T10:29:30.925Z,101100.41
2023-05-04T10:32:00.641Z,101113.16
2023-05-04T10:34:30.067Z,101107.72
2023-05-04T10:36:58.921Z,101099.00
2023-05-04T10:39:28.150Z,101092.00
2023-05-04T10:42:00.334Z,101098.50
2023-05-04T10:44:29.170Z,101070.84
2023-05-04T10:47:05.844Z,101101.75
2023-05-04T10:49:34.209Z,101084.59
2023-05-04T10:52:26.510Z,101079.22
2023-05-04T10:55:00.312Z,101060.47
2023-05-04T10:57:29.301Z,101058.78
2023-05-04T10:59:58.423Z,101084.69
2023-05-04T11:02:30.447Z,101055.63
2023-05-04T11:05:01.144Z,101047.69
2023-05-04T11:07:35.258Z,101040.28
2023-05-04T11:10:03.806Z,101052.91
2023-05-04T11:12:32.609Z,101043.78
2023-05-04T11:15:08.475Z,101043.41
2023-05-04T11:17:46.101Z,101036.00
2023-05-04T11:20:21.002Z,101044.47
2023-05-04T11:22:49.016Z,101029.84
2023-05-04T11:25:17.432Z,101027.06
2023-05-04T11:30:32.714Z,101044.91
2023-05-04T11:33:02.342Z,101026.59
2023-05-04T11:35:30.124Z,101035.06
2023-05-04T11:41:32.989Z,101015.34
2023-05-04T11:44:01.828Z,101016.31
2023-05-04T11:46:29.929Z,101021.19
2023-05-04T11:49:00.093Z,100998.72
2023-05-04T11:51:29.161Z,100998.91
2023-05-04T11:53:57.048Z,100997.31
2023-05-04T11:56:24.702Z,100992.66
2023-05-04T11:58:52.538Z,100982.28
2023-05-04T12:01:21.171Z,100988.50
2023-05-04T12:03:53.580Z,100976.91
2023-05-04T12:06:35.338Z,100969.81
2023-05-04T12:09:03.749Z,100961.56
2023-05-04T12:11:31.410Z,100970.50
2023-05-04T12:14:03.708Z,100960.63
2023-05-04T12:16:31.788Z,100970.13
2023-05-04T12:19:04.626Z,100965.00
2023-05-04T12:21:32.823Z,100970.91
2023-05-04T12:24:02.321Z,100963.34
2023-05-04T12:26:32.474Z,100958.50
2023-05-04T12:29:00.143Z,100949.47
2023-05-04T12:31:28.827Z,100971.56
2023-05-04T12:33:56.589Z,100937.56
2023-05-04T12:36:24.381Z,100946.38
2023-05-04T12:38:52.213Z,100934.91
2023-05-04T12:41:21.548Z,100933.88
2023-05-04T12:43:49.835Z,100928.41
2023-05-04T12:46:21.353Z,100928.13
2023-05-04T12:48:49.331Z,100932.91
2023-05-04T12:51:17.024Z,100924.09
2023-05-04T12:54:02.316Z,100932.59
2023-05-04T12:56:32.207Z,100919.22
2023-05-04T12:58:59.845Z,100917.56
2023-05-04T13:01:28.263Z,100912.09
2023-05-04T13:03:56.018Z,100907.75
2023-05-04T13:06:23.828Z,100912.09
2023-05-04T13:08:51.726Z,100933.78
2023-05-04T13:11:20.208Z,100926.75
2023-05-04T13:13:49.300Z,100929.00
2023-05-04T13:16:17.424Z,100925.06
2023-05-04T13:18:45.164Z,100913.09
2023-05-04T13:21:12.806Z,100895.16
2023-05-04T13:23:40.485Z,100893.31
2023-05-04T13:26:08.161Z,100887.69
2023-05-04T13:28:37.852Z,100884.81
2023-05-04T13:31:08.835Z,100873.78
2023-05-04T13:33:38.700Z,100873.41
2023-05-04T13:36:07.473Z,100876.63
2023-05-04T13:38:35.155Z,100860.34
2023-05-04T13:41:03.065Z,100865.31
2023-05-04T13:43:30.941Z,100853.56
2023-05-04T13:46:26.138Z,100849.34
2023-05-04T13:48:55.162Z,100853.03
2023-05-04T13:51:24.576Z,100839.25
2023-05-04T13:53:52.242Z,100834.72
2023-05-04T13:56:19.908Z,100826.59
2023-05-04T13:58:47.530Z,100822.84
2023-05-04T14:01:16.015Z,100814.94
2023-05-04T14:03:46.730Z,100807.41
2023-05-04T14:06:14.678Z,100813.47
2023-05-04T14:08:42.541Z,100803.91
2023-05-04T14:11:10.445Z,100799.47
2023-05-04T14:13:38.092Z,100803.38
2023-05-04T14:16:06.792Z,100792.16
2023-05-04T14:18:34.458Z,100794.06
2023-05-04T14:21:03.530Z,100792.13
2023-05-04T14:23:31.306Z,100798.56
2023-05-04T14:25:59.010Z,100765.84
2023-05-04T14:32:16.795Z,100770.94
2023-05-04T14:34:44.783Z,100761.25
2023-05-04T14:37:12.467Z,100766.50
2023-05-04T14:39:40.731Z,100769.97
2023-05-04T14:42:08.801Z,100765.34
2023-05-04T14:44:36.981Z,100772.66
2023-05-04T14:47:07.415Z,100766.88
2023-05-04T14:49:42.840Z,100753.44
2023-05-04T14:52:11.398Z,100760.75
2023-05-04T14:54:39.058Z,100754.19
2023-05-04T14:57:09.039Z,100762.97
2023-05-04T14:59:37.777Z,100756.94
2023-05-04T15:02:08.279Z,100745.28
2023-05-04T15:04:37.421Z,100733.91
2023-05-04T15:07:05.524Z,100735.53
2023-05-04T15:09:33.304Z,100740.56
2023-05-04T15:12:01.013Z,100728.50
2023-05-04T15:14:28.713Z,100738.72
2023-05-04T15:16:56.396Z,100735.28
2023-05-04T15:19:24.143Z,100721.97
2023-05-04T15:21:53.441Z,100709.00
2023-05-04T15:24:21.374Z,100725.59
2023-05-04T15:26:49.077Z,100707.03
2023-05-04T15:29:16.778Z,100699.94
2023-05-04T15:31:44.514Z,100713.41
2023-05-04T15:34:12.277Z,100698.34
2023-05-04T15:36:40.248Z,100693.28
2023-05-04T15:39:10.185Z,100693.69
2023-05-04T15:41:38.239Z,100692.03
2023-05-04T15:44:06.944Z,100681.44
2023-05-04T15:46:34.787Z,100683.06
2023-05-04T15:49:02.535Z,100701.03
2023-05-04T15:51:31.963Z,100697.25
2023-05-04T15:54:00.187Z,100687.88
2023-05-04T15:56:29.360Z,100694.03
2023-05-04T15:58:57.077Z,100684.31
2023-05-04T16:01:24.970Z,100681.63
2023-05-04T16:04:01.075Z,100689.09
2023-05-04T16:06:29.016Z,100679.59
2023-05-04T16:08:56.778Z,100679.75
2023-05-04T16:11:24.485Z,100686.13
2023-05-04T16:13:53.577Z,100657.19
2023-05-04T16:16:21.369Z,100666.19
2023-05-04T16:18:49.081Z,100656.03
2023-05-04T16:21:16.894Z,100649.53
2023-05-04T16:23:44.579Z,100650.97
2023-05-04T16:26:12.392Z,100656.88
2023-05-04T16:28:41.542Z,100650.88
2023-05-04T16:31:12.110Z,100637.16
2023-05-04T16:33:41.364Z,100650.97
2023-05-04T16:36:10.165Z,100639.50
2023-05-04T16:38:37.894Z,100654.09
2023-05-04T16:41:05.772Z,100658.16
2023-05-04T16:43:33.585Z,100649.31
2023-05-04T16:46:01.366Z,100649.41
2023-05-04T16:48:30.708Z,100642.78
2023-05-04T16:50:58.400Z,100636.59
2023-05-04T16:53:26.109Z,100635.81
2023-05-04T16:55:53.783Z,100643.19
2023-05-04T16:58:21.446Z,100621.16
2023-05-04T17:00:49.426Z,100623.72
2023-05-04T17:03:17.275Z,100624.50
2023-05-04T17:08:44.053Z,100621.88
2023-05-04T17:11:11.813Z,100605.75
2023-05-04T17:13:39.502Z,100599.00
2023-05-04T17:16:07.983Z,100615.56
2023-05-04T17:18:35.715Z,100604.59
2023-05-04T17:24:35.982Z,100619.03
2023-05-04T17:27:03.801Z,100616.16
2023-05-04T17:29:32.479Z,100594.53
2023-05-04T17:32:00.238Z,100610.31
2023-05-04T17:34:27.990Z,100607.59
2023-05-04T17:36:55.737Z,100612.34
2023-05-04T17:39:23.429Z,100628.06
2023-05-04T17:41:52.590Z,100631.50
2023-05-04T17:44:20.312Z,100606.06
2023-05-04T17:46:48.484Z,100625.66
2023-05-04T17:49:19.095Z,100597.97
2023-05-04T17:51:49.095Z,100613.50
2023-05-04T17:54:17.001Z,100605.03
2023-05-04T17:56:44.727Z,100617.28
2023-05-04T17:59:13.847Z,100606.13
2023-05-04T18:01:41.598Z,100604.28
2023-05-04T18:04:09.374Z,100591.69
2023-05-04T18:06:37.314Z,100601.47
2023-05-04T18:09:05.421Z,100609.44
2023-05-04T18:11:33.187Z,100603.47
2023-05-04T18:14:00.978Z,100593.47
2023-05-04T18:16:32.951Z,100603.81
2023-05-04T18:19:01.375Z,100615.94
2023-05-04T18:21:29.206Z,100622.53
2023-05-04T18:23:57.085Z,100615.59
2023-05-04T18:26:24.752Z,100609.06
2023-05-04T18:28:52.521Z,100618.97
2023-05-04T18:31:20.305Z,100619.63
2023-05-04T18:33:50.183Z,100627.56
2023-05-04T18:36:18.914Z,100622.69
2023-05-04T18:38:49.710Z,100623.28
2023-05-04T18:44:03.153Z,100622.91
2023-05-04T18:46:30.858Z,100626.59
2023-05-04T18:48:59.953Z,100622.34
2023-05-04T18:51:28.087Z,100632.66
2023-05-04T18:53:55.742Z,100626.38
2023-05-04T18:56:23.472Z,100628.66
2023-05-04T18:58:51.162Z,100610.84
2023-05-04T19:01:19.101Z,100613.63
2023-05-04T19:03:47.151Z,100628.13
2023-05-04T19:06:16.304Z,100601.31
2023-05-04T19:08:44.231Z,100622.16
2023-05-04T19:11:12.068Z,100615.56
2023-05-04T19:13:39.916Z,100628.78
2023-05-04T19:16:12.690Z,100613.78
2023-05-04T19:18:40.666Z,100624.50
2023-05-04T19:21:08.373Z,100630.59
2023-05-04T19:23:37.487Z,100618.88
2023-05-04T19:26:05.956Z,100643.41
2023-05-04T19:28:42.831Z,100640.16
2023-05-04T19:31:10.542Z,100646.00
2023-05-04T19:33:48.071Z,100643.06
2023-05-04T19:36:16.996Z,100620.72
2023-05-04T19:38:46.322Z,100635.25
2023-05-04T19:41:14.784Z,100635.03
2023-05-04T19:43:42.694Z,100634.16
2023-05-04T19:46:10.471Z,100622.88
2023-05-04T19:48:39.367Z,100638.53
2023-05-04T19:51:07.069Z,100635.44
2023-05-04T19:53:34.833Z,100640.69
2023-05-04T19:56:03.989Z,100633.47
2023-05-04T19:58:32.012Z,100632.66
2023-05-04T20:00:59.748Z,100636.28
2023-05-04T20:03:27.499Z,100632.91
2023-05-04T20:05:55.626Z,100633.34
2023-05-04T20:08:23.345Z,100621.63
2023-05-04T20:10:51.071Z,100621.69
2023-05-04T20:13:20.186Z,100629.91
2023-05-04T20:15:47.937Z,100633.78
2023-05-04T20:18:21.513Z,100627.78
2023-05-04T20:20:49.337Z,100627.41
2023-05-04T20:23:17.852Z,100626.00
2023-05-04T20:25:46.192Z,100622.78
2023-05-04T20:28:14.196Z,100620.44
2023-05-04T20:30:43.395Z,100631.78
2023-05-04T20:33:11.363Z,100614.66
2023-05-04T20:35:41.504Z,100618.81
2023-05-04T20:38:09.555Z,100609.53
2023-05-04T20:40:37.626Z,100610.63
2023-05-04T20:43:05.310Z,100612.97
2023-05-04T20:45:33.430Z,100621.59
2023-05-04T20:48:03.922Z,100605.66
2023-05-04T20:50:31.856Z,100616.66
2023-05-04T20:53:01.256Z,100605.78
2023-05-04T20:55:28.970Z,100611.00
2023-05-04T20:57:56.679Z,100606.03
2023-05-04T21:00:25.385Z,100620.22
2023-05-04T21:02:53.562Z,100612.06
2023-05-04T21:05:22.752Z,100601.97
2023-05-04T21:07:52.032Z,100598.16
2023-05-04T21:10:20.550Z,100602.31
2023-05-04T21:12:48.253Z,100588.34
2023-05-04T21:15:16.537Z,100595.22
2023-05-04T21:17:44.313Z,100601.47
2023-05-04T21:20:12.302Z,100598.22
2023-05-04T21:22:41.429Z,100595.22
2023-05-04T21:25:09.604Z,100592.69
2023-05-04T21:27:37.305Z,100586.78
2023-05-04T21:30:05.597Z,100584.88
2023-05-04T21:32:33.400Z,100590.31
2023-05-04T21:35:01.740Z,100590.59
2023-05-04T21:37:29.407Z,100576.47
2023-05-04T21:39:58.497Z,100586.22
2023-05-04T21:42:26.580Z,100576.50
2023-05-04T21:44:55.127Z,100585.41
2023-05-04T21:47:22.929Z,100568.28
2023-05-04T21:49:51.840Z,100574.81
2023-05-04T21:52:19.596Z,100575.91
2023-05-04T21:54:47.252Z,100576.94
2023-05-04T21:57:16.354Z,100569.03
2023-05-04T21:59:44.048Z,100573.19
2023-05-04T22:02:11.850Z,100568.38
2023-05-04T22:04:43.282Z,100565.56
2023-05-04T22:07:11.164Z,100571.88
2023-05-04T22:09:41.490Z,100561.00
2023-05-04T22:12:09.264Z,100550.72
2023-05-04T22:14:39.456Z,100554.06
2023-05-04T22:17:09.003Z,100556.28
2023-05-04T22:19:36.814Z,100550.66
2023-05-04T22:22:04.760Z,100551.66
2023-05-04T22:24:32.699Z,100557.25
2023-05-04T22:27:00.354Z,100553.03
2023-05-04T22:29:28.085Z,100544.81
2023-05-04T22:31:57.145Z,100551.84
2023-05-04T22:34:24.928Z,100545.13
2023-05-04T22:36:52.571Z,100542.53
2023-05-04T22:39:20.654Z,100547.50
2023-05-04T22:41:48.283Z,100538.47
2023-05-04T22:44:15.932Z,100552.41
2023-05-04T22:46:43.628Z,100538.09
2023-05-04T22:49:12.791Z,100537.91
2023-05-04T22:51:40.437Z,100531.00
2023-05-04T22:54:08.115Z,100536.19
2023-05-04T22:56:36.299Z,100545.13
2023-05-04T22:59:04.750Z,100537.41
2023-05-04T23:01:32.482Z,100544.91
2023-05-04T23:04:00.343Z,100535.69
2023-05-04T23:06:29.517Z,100533.53
2023-05-04T23:08:57.146Z,100540.28
2023-05-04T23:11:24.810Z,100541.69
2023-05-04T23:13:52.522Z,100526.28
2023-05-04T23:16:20.351Z,100523.16
2023-05-04T23:18:48.859Z,100531.34
2023-05-04T23:21:16.512Z,100542.47
2023-05-04T23:23:46.023Z,100546.00
2023-05-04T23:26:13.656Z,100535.44
2023-05-04T23:28:41.520Z,100522.34
2023-05-04T23:31:09.238Z,100518.69
2023-05-04T23:33:36.971Z,100526.69
2023-05-04T23:36:04.808Z,100521.63
2023-05-04T23:38:32.488Z,100538.16
2023-05-04T23:41:03.334Z,100521.72
2023-05-04T23:43:31.824Z,100525.03
2023-05-04T23:46:00.833Z,100515.56
2023-05-04T23:48:28.770Z,100526.66
2023-05-04T23:50:58.868Z,100513.00
2023-05-04T23:53:26.902Z,100516.59
2023-05-04T23:56:00.133Z,100519.66
2023-05-04T23:58:45.534Z,100516.53
